
Distance (Route):
Temperature : -5.6°C
Humidity : 0%
Pressure : 0hPa| Receiver | Frames | First received | Last received |
|---|---|---|---|
| KE7DJD | 232 | 2026-09-05 17:55:32 | 2026-09-05 19:17:36 |
| Receiver | Date | Latitude | Longitude | Direction | Speed | Altitude | Climb | Temperature | Humidity | Pressure | Voltage | Killtimer | Uptime | BKT | XDATA |
|---|---|---|---|---|---|---|---|---|---|---|---|---|---|---|---|
| KE7DJD | 2026-09-05 19:17:36 | 41.99780 | -114.87807 | 29° | 80km/h | 6010m | -6.0m/s | -5.6°C | 0% | 0hPa | 0V | 00:00:00 | 00:00:00 | 00:00:00 | |
| KE7DJD | 2026-09-05 19:16:47 | 41.98897 | -114.88436 | 30° | 82km/h | 6308m | -5.8m/s | -8.1°C | 0% | 0hPa | 0V | 00:00:00 | 00:00:00 | 00:00:00 | |
| KE7DJD | 2026-09-05 19:16:26 | 41.98505 | -114.88718 | 28° | 84km/h | 6434m | -6.0m/s | -9.0°C | 0% | 0hPa | 0V | 00:00:00 | 00:00:00 | 00:00:00 | |
| KE7DJD | 2026-09-05 19:16:05 | 41.98082 | -114.89023 | 31° | 88km/h | 6566m | -5.9m/s | -9.7°C | 0% | 0hPa | 0V | 00:00:00 | 00:00:00 | 00:00:00 | |
| KE7DJD | 2026-09-05 19:15:44 | 41.97677 | -114.89340 | 29° | 95km/h | 6692m | -5.9m/s | -10.5°C | 0% | 0hPa | 0V | 00:00:00 | 00:00:00 | 00:00:00 | |
| KE7DJD | 2026-09-05 19:15:22 | 41.97199 | -114.89705 | 34° | 97km/h | 6824m | -6.0m/s | -11.2°C | 0% | 0hPa | 0V | 00:00:00 | 00:00:00 | 00:00:00 | |
| KE7DJD | 2026-09-05 19:15:01 | 41.96784 | -114.90047 | 32° | 97km/h | 6940m | -5.8m/s | -12.2°C | 0% | 0hPa | 0V | 00:00:00 | 00:00:00 | 00:00:00 | |
| KE7DJD | 2026-09-05 19:14:41 | 41.96360 | -114.90388 | 33° | 95km/h | 7061m | -5.6m/s | -12.8°C | 0% | 0hPa | 0V | 00:00:00 | 00:00:00 | 00:00:00 | |
| KE7DJD | 2026-09-05 19:14:19 | 41.95932 | -114.90747 | 34° | 95km/h | 7181m | -5.7m/s | -13.7°C | 0% | 0hPa | 0V | 00:00:00 | 00:00:00 | 00:00:00 | |
| KE7DJD | 2026-09-05 19:13:58 | 41.95505 | -114.91125 | 36° | 97km/h | 7301m | -5.3m/s | -14.0°C | 0% | 0hPa | 0V | 00:00:00 | 00:00:00 | 00:00:00 | |
| KE7DJD | 2026-09-05 19:13:38 | 41.95071 | -114.91529 | 35° | 102km/h | 7417m | -5.6m/s | -14.5°C | 0% | 0hPa | 0V | 00:00:00 | 00:00:00 | 00:00:00 | |
| KE7DJD | 2026-09-05 19:13:17 | 41.94617 | -114.91965 | 37° | 108km/h | 7532m | -5.4m/s | -14.9°C | 0% | 0hPa | 0V | 00:00:00 | 00:00:00 | 00:00:00 | |
| KE7DJD | 2026-09-05 19:12:56 | 41.94176 | -114.92400 | 38° | 108km/h | 7639m | -5.5m/s | -15.8°C | 0% | 0hPa | 0V | 00:00:00 | 00:00:00 | 00:00:00 | |
| KE7DJD | 2026-09-05 19:12:36 | 41.93686 | -114.92867 | 35° | 113km/h | 7749m | -5.4m/s | -16.5°C | 0% | 0hPa | 0V | 00:00:00 | 00:00:00 | 00:00:00 | |
| KE7DJD | 2026-09-05 19:12:15 | 41.93187 | -114.93333 | 35° | 115km/h | 7859m | -5.2m/s | -17.3°C | 0% | 0hPa | 0V | 00:00:00 | 00:00:00 | 00:00:00 | |
| KE7DJD | 2026-09-05 19:11:34 | 41.92227 | -114.94235 | 36° | 113km/h | 8074m | -5.3m/s | -19.1°C | 0% | 0hPa | 0V | 00:00:00 | 00:00:00 | 00:00:00 | |
| KE7DJD | 2026-09-05 19:11:13 | 41.91754 | -114.94691 | 38° | 117km/h | 8180m | -5.1m/s | -19.9°C | 0% | 0hPa | 0V | 00:00:00 | 00:00:00 | 00:00:00 | |
| KE7DJD | 2026-09-05 19:10:52 | 41.91249 | -114.95190 | 38° | 119km/h | 8289m | -5.3m/s | -20.8°C | 0% | 0hPa | 0V | 00:00:00 | 00:00:00 | 00:00:00 | |
| KE7DJD | 2026-09-05 19:10:32 | 41.90759 | -114.95661 | 35° | 120km/h | 8394m | -5.3m/s | -21.7°C | 0% | 0hPa | 0V | 00:00:00 | 00:00:00 | 00:00:00 | |
| KE7DJD | 2026-09-05 19:10:12 | 41.90239 | -114.96133 | 34° | 120km/h | 8506m | -5.3m/s | -22.6°C | 0% | 0hPa | 0V | 00:00:00 | 00:00:00 | 00:00:00 | |
| KE7DJD | 2026-09-05 19:09:51 | 41.89736 | -114.96564 | 34° | 117km/h | 8612m | -5.5m/s | -23.6°C | 0% | 0hPa | 0V | 00:00:00 | 00:00:00 | 00:00:00 | |
| KE7DJD | 2026-09-05 19:09:31 | 41.89212 | -114.97023 | 35° | 117km/h | 8726m | -5.6m/s | -24.5°C | 0% | 0hPa | 0V | 00:00:00 | 00:00:00 | 00:00:00 | |
| KE7DJD | 2026-09-05 19:09:10 | 41.88714 | -114.97458 | 33° | 117km/h | 8838m | -5.7m/s | -25.4°C | 0% | 0hPa | 0V | 00:00:00 | 00:00:00 | 00:00:00 | |
| KE7DJD | 2026-09-05 19:08:50 | 41.88189 | -114.97913 | 34° | 117km/h | 8957m | -5.9m/s | -26.5°C | 0% | 0hPa | 0V | 00:00:00 | 00:00:00 | 00:00:00 | |
| KE7DJD | 2026-09-05 19:08:29 | 41.87687 | -114.98364 | 34° | 117km/h | 9080m | -6.0m/s | -27.5°C | 0% | 0hPa | 0V | 00:00:00 | 00:00:00 | 00:00:00 | |
| KE7DJD | 2026-09-05 19:08:09 | 41.87154 | -114.98810 | 35° | 120km/h | 9201m | -6.0m/s | -28.5°C | 0% | 0hPa | 0V | 00:00:00 | 00:00:00 | 00:00:00 | |
| KE7DJD | 2026-09-05 19:07:47 | 41.86604 | -114.99320 | 36° | 130km/h | 9326m | -6.1m/s | -29.4°C | 0% | 0hPa | 0V | 00:00:00 | 00:00:00 | 00:00:00 | |
| KE7DJD | 2026-09-05 19:07:27 | 41.86066 | -114.99808 | 36° | 131km/h | 9450m | -6.4m/s | -30.5°C | 0% | 0hPa | 0V | 00:00:00 | 00:00:00 | 00:00:00 | |
| KE7DJD | 2026-09-05 19:07:07 | 41.85476 | -115.00345 | 35° | 135km/h | 9584m | -6.5m/s | -31.5°C | 0% | 0hPa | 0V | 00:00:00 | 00:00:00 | 00:00:00 | |
| KE7DJD | 2026-09-05 19:06:46 | 41.84890 | -115.00903 | 37° | 133km/h | 9723m | -6.8m/s | -32.7°C | 0% | 0hPa | 0V | 00:00:00 | 00:00:00 | 00:00:00 | |
| KE7DJD | 2026-09-05 19:06:25 | 41.84332 | -115.01435 | 37° | 133km/h | 9858m | -6.9m/s | -33.9°C | 0% | 0hPa | 0V | 00:00:00 | 00:00:00 | 00:00:00 | |
| KE7DJD | 2026-09-05 19:06:05 | 41.83775 | -115.01964 | 37° | 133km/h | 9995m | -7.2m/s | -34.8°C | 0% | 0hPa | 0V | 00:00:00 | 00:00:00 | 00:00:00 | |
| KE7DJD | 2026-09-05 19:05:45 | 41.83190 | -115.02546 | 37° | 139km/h | 10143m | -7.2m/s | -35.9°C | 0% | 0hPa | 0V | 00:00:00 | 00:00:00 | 00:00:00 | |
| KE7DJD | 2026-09-05 19:05:24 | 41.82626 | -115.03096 | 37° | 141km/h | 10288m | -7.3m/s | -36.9°C | 0% | 0hPa | 0V | 00:00:00 | 00:00:00 | 00:00:00 | |
| KE7DJD | 2026-09-05 19:05:04 | 41.82018 | -115.03690 | 38° | 142km/h | 10440m | -7.5m/s | -37.9°C | 0% | 0hPa | 0V | 00:00:00 | 00:00:00 | 00:00:00 | |
| KE7DJD | 2026-09-05 19:04:43 | 41.81427 | -115.04242 | 34° | 146km/h | 10586m | -7.4m/s | -38.8°C | 0% | 0hPa | 0V | 00:00:00 | 00:00:00 | 00:00:00 | |
| KE7DJD | 2026-09-05 19:04:23 | 41.80778 | -115.04799 | 33° | 144km/h | 10741m | -7.4m/s | -40.0°C | 0% | 0hPa | 0V | 00:00:00 | 00:00:00 | 00:00:00 | |
| KE7DJD | 2026-09-05 19:04:02 | 41.80145 | -115.05305 | 32° | 148km/h | 10888m | -7.4m/s | -41.2°C | 0% | 0hPa | 0V | 00:00:00 | 00:00:00 | 00:00:00 | |
| KE7DJD | 2026-09-05 19:03:42 | 41.79477 | -115.05851 | 35° | 148km/h | 11043m | -7.2m/s | -42.2°C | 0% | 0hPa | 0V | 00:00:00 | 00:00:00 | 00:00:00 | |
| KE7DJD | 2026-09-05 19:03:21 | 41.78851 | -115.06378 | 33° | 148km/h | 11187m | -7.2m/s | -43.2°C | 0% | 0hPa | 0V | 00:00:00 | 00:00:00 | 00:00:00 | |
| KE7DJD | 2026-09-05 19:03:01 | 41.78189 | -115.06953 | 34° | 148km/h | 11338m | -7.1m/s | -43.5°C | 0% | 0hPa | 0V | 00:00:00 | 00:00:00 | 00:00:00 | |
| KE7DJD | 2026-09-05 19:02:40 | 41.77561 | -115.07534 | 36° | 151km/h | 11481m | -7.3m/s | -44.5°C | 0% | 0hPa | 0V | 00:00:00 | 00:00:00 | 00:00:00 | |
| KE7DJD | 2026-09-05 19:02:20 | 41.76925 | -115.08179 | 39° | 148km/h | 11631m | -7.1m/s | -45.0°C | 0% | 0hPa | 0V | 00:00:00 | 00:00:00 | 00:00:00 | |
| KE7DJD | 2026-09-05 19:01:58 | 41.76315 | -115.08832 | 41° | 146km/h | 11781m | -7.2m/s | -44.8°C | 0% | 0hPa | 0V | 00:00:00 | 00:00:00 | 00:00:00 | |
| KE7DJD | 2026-09-05 19:01:38 | 41.75740 | -115.09469 | 41° | 146km/h | 11924m | -7.2m/s | -44.9°C | 0% | 0hPa | 0V | 00:00:00 | 00:00:00 | 00:00:00 | |
| KE7DJD | 2026-09-05 19:01:18 | 41.75167 | -115.10132 | 41° | 137km/h | 12076m | -7.4m/s | -45.1°C | 0% | 0hPa | 0V | 00:00:00 | 00:00:00 | 00:00:00 | |
| KE7DJD | 2026-09-05 19:00:57 | 41.74653 | -115.10693 | 38° | 128km/h | 12226m | -7.6m/s | -45.1°C | 0% | 0hPa | 0V | 00:00:00 | 00:00:00 | 00:00:00 | |
| KE7DJD | 2026-09-05 19:00:36 | 41.74115 | -115.11221 | 37° | 128km/h | 12386m | -7.7m/s | -45.5°C | 0% | 0hPa | 0V | 00:00:00 | 00:00:00 | 00:00:00 | |
| KE7DJD | 2026-09-05 19:00:16 | 41.73575 | -115.11716 | 37° | 131km/h | 12544m | -7.8m/s | -45.8°C | 0% | 0hPa | 0V | 00:00:00 | 00:00:00 | 00:00:00 | |
| KE7DJD | 2026-09-05 18:59:56 | 41.73055 | -115.12267 | 43° | 128km/h | 12700m | -7.6m/s | -46.0°C | 0% | 0hPa | 0V | 00:00:00 | 00:00:00 | 00:00:00 | |
| KE7DJD | 2026-09-05 18:59:35 | 41.72575 | -115.12932 | 48° | 119km/h | 12858m | -7.7m/s | -45.9°C | 0% | 0hPa | 0V | 00:00:00 | 00:00:00 | 00:00:00 | |
| KE7DJD | 2026-09-05 18:59:15 | 41.72185 | -115.13454 | 42° | 106km/h | 13010m | -7.4m/s | -46.0°C | 0% | 0hPa | 0V | 00:00:00 | 00:00:00 | 00:00:00 | |
| KE7DJD | 2026-09-05 18:58:54 | 41.71773 | -115.13915 | 41° | 108km/h | 13160m | -7.6m/s | -46.3°C | 0% | 0hPa | 0V | 00:00:00 | 00:00:00 | 00:00:00 | |
| KE7DJD | 2026-09-05 18:58:34 | 41.71346 | -115.14428 | 47° | 104km/h | 13318m | -7.5m/s | -46.8°C | 0% | 0hPa | 0V | 00:00:00 | 00:00:00 | 00:00:00 | |
| KE7DJD | 2026-09-05 18:58:13 | 41.70973 | -115.14938 | 44° | 108km/h | 13468m | -7.4m/s | -46.8°C | 0% | 0hPa | 0V | 00:00:00 | 00:00:00 | 00:00:00 | |
| KE7DJD | 2026-09-05 18:57:53 | 41.70539 | -115.15412 | 38° | 102km/h | 13626m | -7.5m/s | -46.7°C | 0% | 0hPa | 0V | 00:00:00 | 00:00:00 | 00:00:00 | |
| KE7DJD | 2026-09-05 18:57:32 | 41.70132 | -115.15865 | 43° | 106km/h | 13776m | -7.7m/s | -47.2°C | 0% | 0hPa | 0V | 00:00:00 | 00:00:00 | 00:00:00 | |
| KE7DJD | 2026-09-05 18:57:12 | 41.69738 | -115.16371 | 44° | 99km/h | 13931m | -7.2m/s | -47.4°C | 0% | 0hPa | 0V | 00:00:00 | 00:00:00 | 00:00:00 | |
| KE7DJD | 2026-09-05 18:56:51 | 41.69354 | -115.16801 | 41° | 93km/h | 14087m | -7.3m/s | -47.9°C | 0% | 0hPa | 0V | 00:00:00 | 00:00:00 | 00:00:00 | |
| KE7DJD | 2026-09-05 18:56:30 | 41.68985 | -115.17202 | 38° | 91km/h | 14235m | -7.3m/s | -48.2°C | 0% | 0hPa | 0V | 00:00:00 | 00:00:00 | 00:00:00 | |
| KE7DJD | 2026-09-05 18:56:10 | 41.68619 | -115.17570 | 37° | 82km/h | 14390m | -7.5m/s | -48.6°C | 0% | 0hPa | 0V | 00:00:00 | 00:00:00 | 00:00:00 | |
| KE7DJD | 2026-09-05 18:55:49 | 41.68286 | -115.17899 | 39° | 80km/h | 14538m | -7.5m/s | -49.2°C | 0% | 0hPa | 0V | 00:00:00 | 00:00:00 | 00:00:00 | |
| KE7DJD | 2026-09-05 18:55:29 | 41.67927 | -115.18252 | 38° | 82km/h | 14695m | -7.1m/s | -49.5°C | 0% | 0hPa | 0V | 00:00:00 | 00:00:00 | 00:00:00 | |
| KE7DJD | 2026-09-05 18:55:08 | 41.67582 | -115.18568 | 32° | 84km/h | 14842m | -7.5m/s | -49.7°C | 0% | 0hPa | 0V | 00:00:00 | 00:00:00 | 00:00:00 | |
| KE7DJD | 2026-09-05 18:54:48 | 41.67195 | -115.18880 | 33° | 86km/h | 15000m | -7.6m/s | -50.0°C | 0% | 0hPa | 0V | 00:00:00 | 00:00:00 | 00:00:00 | |
| KE7DJD | 2026-09-05 18:54:27 | 41.66810 | -115.19197 | 35° | 89km/h | 15154m | -7.9m/s | -49.3°C | 0% | 0hPa | 0V | 00:00:00 | 00:00:00 | 00:00:00 | |
| KE7DJD | 2026-09-05 18:54:07 | 41.66485 | -115.19567 | 47° | 77km/h | 15314m | -7.6m/s | -49.3°C | 0% | 0hPa | 0V | 00:00:00 | 00:00:00 | 00:00:00 | |
| KE7DJD | 2026-09-05 18:53:46 | 41.66227 | -115.19916 | 47° | 69km/h | 15466m | -7.4m/s | -49.9°C | 0% | 0hPa | 0V | 00:00:00 | 00:00:00 | 00:00:00 | |
| KE7DJD | 2026-09-05 18:53:26 | 41.65976 | -115.20273 | 48° | 60km/h | 15623m | -7.2m/s | -50.5°C | 0% | 0hPa | 0V | 00:00:00 | 00:00:00 | 00:00:00 | |
| KE7DJD | 2026-09-05 18:53:05 | 41.65751 | -115.20553 | 40° | 64km/h | 15772m | -7.3m/s | -50.8°C | 0% | 0hPa | 0V | 00:00:00 | 00:00:00 | 00:00:00 | |
| KE7DJD | 2026-09-05 18:52:45 | 41.65453 | -115.20857 | 37° | 73km/h | 15925m | -7.4m/s | -51.6°C | 0% | 0hPa | 0V | 00:00:00 | 00:00:00 | 00:00:00 | |
| KE7DJD | 2026-09-05 18:52:24 | 41.65151 | -115.21189 | 43° | 77km/h | 16073m | -7.5m/s | -51.9°C | 0% | 0hPa | 0V | 00:00:00 | 00:00:00 | 00:00:00 | |
| KE7DJD | 2026-09-05 18:52:04 | 41.64842 | -115.21567 | 43° | 78km/h | 16231m | -7.5m/s | -52.7°C | 0% | 0hPa | 0V | 00:00:00 | 00:00:00 | 00:00:00 | |
| KE7DJD | 2026-09-05 18:51:42 | 41.64561 | -115.21967 | 51° | 66km/h | 16392m | -7.6m/s | -51.9°C | 0% | 0hPa | 0V | 00:00:00 | 00:00:00 | 00:00:00 | |
| KE7DJD | 2026-09-05 18:51:22 | 41.64361 | -115.22260 | 49° | 58km/h | 16547m | -7.6m/s | -51.5°C | 0% | 0hPa | 0V | 00:00:00 | 00:00:00 | 00:00:00 | |
| KE7DJD | 2026-09-05 18:51:02 | 41.64160 | -115.22526 | 38° | 47km/h | 16713m | -8.0m/s | -51.5°C | 0% | 0hPa | 0V | 00:00:00 | 00:00:00 | 00:00:00 | |
| KE7DJD | 2026-09-05 18:50:41 | 41.63955 | -115.22653 | 12° | 47km/h | 16877m | -7.9m/s | -51.9°C | 0% | 0hPa | 0V | 00:00:00 | 00:00:00 | 00:00:00 | |
| KE7DJD | 2026-09-05 18:50:21 | 41.63676 | -115.22672 | 358° | 55km/h | 17041m | -7.8m/s | -52.4°C | 0% | 0hPa | 0V | 00:00:00 | 00:00:00 | 00:00:00 | |
| KE7DJD | 2026-09-05 18:50:00 | 41.63389 | -115.22645 | 358° | 60km/h | 17202m | -8.5m/s | -53.4°C | 0% | 0hPa | 0V | 00:00:00 | 00:00:00 | 00:00:00 | |
| KE7DJD | 2026-09-05 18:49:40 | 41.63063 | -115.22651 | 5° | 62km/h | 17377m | -8.5m/s | -53.8°C | 0% | 0hPa | 0V | 00:00:00 | 00:00:00 | 00:00:00 | |
| KE7DJD | 2026-09-05 18:49:19 | 41.62747 | -115.22690 | 13° | 62km/h | 17555m | -8.8m/s | -49.9°C | 0% | 0hPa | 0V | 00:00:00 | 00:00:00 | 00:00:00 | |
| KE7DJD | 2026-09-05 18:48:38 | 41.62345 | -115.22962 | 17° | 24km/h | 17927m | -9.0m/s | -47.4°C | 0% | 0hPa | 0V | 00:00:00 | 00:00:00 | 00:00:00 | |
| KE7DJD | 2026-09-05 18:48:18 | 41.62218 | -115.22981 | 7° | 27km/h | 18118m | -9.5m/s | -48.8°C | 0% | 0hPa | 0V | 00:00:00 | 00:00:00 | 00:00:00 | |
| KE7DJD | 2026-09-05 18:47:57 | 41.62084 | -115.23006 | 6° | 27km/h | 18294m | -8.4m/s | -50.4°C | 0% | 0hPa | 0V | 00:00:00 | 00:00:00 | 00:00:00 | |
| KE7DJD | 2026-09-05 18:47:37 | 41.61942 | -115.23021 | 2° | 29km/h | 18495m | -9.5m/s | -52.4°C | 0% | 0hPa | 0V | 00:00:00 | 00:00:00 | 00:00:00 | |
| KE7DJD | 2026-09-05 18:47:16 | 41.61803 | -115.23032 | 11° | 29km/h | 18691m | -9.4m/s | -52.8°C | 0% | 0hPa | 0V | 00:00:00 | 00:00:00 | 00:00:00 | |
| KE7DJD | 2026-09-05 18:46:55 | 41.61669 | -115.23074 | 10° | 24km/h | 18878m | -9.5m/s | -52.7°C | 0% | 0hPa | 0V | 00:00:00 | 00:00:00 | 00:00:00 | |
| KE7DJD | 2026-09-05 18:46:35 | 41.61568 | -115.23118 | 27° | 13km/h | 19078m | -9.4m/s | -52.2°C | 0% | 0hPa | 0V | 00:00:00 | 00:00:00 | 00:00:00 | |
| KE7DJD | 2026-09-05 18:46:13 | 41.61494 | -115.23187 | 60° | 15km/h | 19281m | -10.0m/s | -52.4°C | 0% | 0hPa | 0V | 00:00:00 | 00:00:00 | 00:00:00 | |
| KE7DJD | 2026-09-05 18:45:52 | 41.61483 | -115.23200 | 0° | 0km/h | 19492m | -9.9m/s | -50.0°C | 0% | 0hPa | 0V | 00:00:00 | 00:00:00 | 00:00:00 | |
| KE7DJD | 2026-09-05 18:45:32 | 41.61432 | -115.23159 | 347° | 20km/h | 19703m | -9.6m/s | -49.7°C | 0% | 0hPa | 0V | 00:00:00 | 00:00:00 | 00:00:00 | |
| KE7DJD | 2026-09-05 18:45:10 | 41.61307 | -115.23064 | 322° | 29km/h | 19918m | -10.2m/s | -49.2°C | 0% | 0hPa | 0V | 00:00:00 | 00:00:00 | 00:00:00 | |
| KE7DJD | 2026-09-05 18:44:50 | 41.61179 | -115.23012 | 357° | 22km/h | 20125m | -10.3m/s | -50.2°C | 0% | 0hPa | 0V | 00:00:00 | 00:00:00 | 00:00:00 | |
| KE7DJD | 2026-09-05 18:44:30 | 41.61078 | -115.23008 | 352° | 18km/h | 20343m | -10.4m/s | -49.5°C | 0% | 0hPa | 0V | 00:00:00 | 00:00:00 | 00:00:00 | |
| KE7DJD | 2026-09-05 18:44:09 | 41.61007 | -115.22919 | 286° | 24km/h | 20559m | -11.0m/s | -49.7°C | 0% | 0hPa | 0V | 00:00:00 | 00:00:00 | 00:00:00 | |
| KE7DJD | 2026-09-05 18:43:49 | 41.60938 | -115.22736 | 320° | 33km/h | 20789m | -10.4m/s | -49.5°C | 0% | 0hPa | 0V | 00:00:00 | 00:00:00 | 00:00:00 | |
| KE7DJD | 2026-09-05 18:43:08 | 41.60775 | -115.22614 | 281° | 5km/h | 21253m | -11.1m/s | -48.5°C | 0% | 0hPa | 0V | 00:00:00 | 00:00:00 | 00:00:00 | |
| KE7DJD | 2026-09-05 18:42:46 | 41.60776 | -115.22549 | 289° | 18km/h | 21501m | -11.3m/s | -48.8°C | 0% | 0hPa | 0V | 00:00:00 | 00:00:00 | 00:00:00 | |
| KE7DJD | 2026-09-05 18:42:25 | 41.60726 | -115.22418 | 320° | 20km/h | 21759m | -12.1m/s | -49.2°C | 0% | 0hPa | 0V | 00:00:00 | 00:00:00 | 00:00:00 | |
| KE7DJD | 2026-09-05 18:42:05 | 41.60661 | -115.22326 | 274° | 11km/h | 22022m | -12.3m/s | -49.0°C | 0% | 0hPa | 0V | 00:00:00 | 00:00:00 | 00:00:00 | |
| KE7DJD | 2026-09-05 18:41:39 | 41.60651 | -115.22250 | 289° | 16km/h | 22340m | -13.1m/s | -49.1°C | 0% | 0hPa | 0V | 00:00:00 | 00:00:00 | 00:00:00 | |
| KE7DJD | 2026-09-05 18:41:19 | 41.60651 | -115.22153 | 239° | 11km/h | 22599m | -13.6m/s | -49.4°C | 0% | 0hPa | 0V | 00:00:00 | 00:00:00 | 00:00:00 | |
| KE7DJD | 2026-09-05 18:40:58 | 41.60674 | -115.22011 | 296° | 20km/h | 22876m | -13.4m/s | -49.3°C | 0% | 0hPa | 0V | 00:00:00 | 00:00:00 | 00:00:00 | |
| KE7DJD | 2026-09-05 18:40:38 | 41.60646 | -115.21879 | 280° | 29km/h | 23141m | -13.2m/s | -46.8°C | 0% | 0hPa | 0V | 00:00:00 | 00:00:00 | 00:00:00 | |
| KE7DJD | 2026-09-05 18:40:18 | 41.60621 | -115.21676 | 302° | 20km/h | 23424m | -13.6m/s | -45.5°C | 0% | 0hPa | 0V | 00:00:00 | 00:00:00 | 00:00:00 | |
| KE7DJD | 2026-09-05 18:39:57 | 41.60566 | -115.21612 | 284° | 9km/h | 23702m | -13.8m/s | -45.4°C | 0% | 0hPa | 0V | 00:00:00 | 00:00:00 | 00:00:00 | |
| KE7DJD | 2026-09-05 18:39:37 | 41.60655 | -115.21529 | 222° | 37km/h | 24001m | -14.5m/s | -45.4°C | 0% | 0hPa | 0V | 00:00:00 | 00:00:00 | 00:00:00 | |
| KE7DJD | 2026-09-05 18:38:55 | 41.60786 | -115.21162 | 281° | 35km/h | 24612m | -14.9m/s | -45.3°C | 0% | 0hPa | 0V | 00:00:00 | 00:00:00 | 00:00:00 | |
| KE7DJD | 2026-09-05 18:38:35 | 41.60742 | -115.20946 | 278° | 22km/h | 24915m | -15.3m/s | -46.2°C | 0% | 0hPa | 0V | 00:00:00 | 00:00:00 | 00:00:00 | |
| KE7DJD | 2026-09-05 18:38:13 | 41.60738 | -115.20851 | 268° | 24km/h | 25260m | -16.0m/s | -46.3°C | 0% | 0hPa | 0V | 00:00:00 | 00:00:00 | 00:00:00 | |
| KE7DJD | 2026-09-05 18:37:52 | 41.60706 | -115.20742 | 297° | 27km/h | 25579m | -16.5m/s | -45.4°C | 0% | 0hPa | 0V | 00:00:00 | 00:00:00 | 00:00:00 | |
| KE7DJD | 2026-09-05 18:37:32 | 41.60637 | -115.20617 | 344° | 18km/h | 25931m | -17.2m/s | -44.6°C | 0% | 0hPa | 0V | 00:00:00 | 00:00:00 | 00:00:00 | |
| KE7DJD | 2026-09-05 18:37:11 | 41.60538 | -115.20551 | 347° | 18km/h | 26298m | -17.9m/s | -42.2°C | 0% | 0hPa | 0V | 00:00:00 | 00:00:00 | 00:00:00 | |
| KE7DJD | 2026-09-05 18:36:49 | 41.60488 | -115.20507 | 299° | 16km/h | 26672m | -17.5m/s | -41.3°C | 0% | 0hPa | 0V | 00:00:00 | 00:00:00 | 00:00:00 | |
| KE7DJD | 2026-09-05 18:36:29 | 41.60500 | -115.20475 | 279° | 13km/h | 27052m | -18.8m/s | -42.1°C | 0% | 0hPa | 0V | 00:00:00 | 00:00:00 | 00:00:00 | |
| KE7DJD | 2026-09-05 18:36:08 | 41.60536 | -115.20416 | 226° | 13km/h | 27439m | -22.7m/s | -41.1°C | 0% | 0hPa | 0V | 00:00:00 | 00:00:00 | 00:00:00 | |
| KE7DJD | 2026-09-05 18:35:47 | 41.60509 | -115.20309 | 294° | 27km/h | 27873m | -21.6m/s | -40.9°C | 0% | 0hPa | 0V | 00:00:00 | 00:00:00 | 00:00:00 | |
| KE7DJD | 2026-09-05 18:35:27 | 41.60425 | -115.20171 | 319° | 24km/h | 28315m | -21.4m/s | -41.3°C | 0% | 0hPa | 0V | 00:00:00 | 00:00:00 | 00:00:00 | |
| KE7DJD | 2026-09-05 18:35:06 | 41.60306 | -115.20118 | 348° | 29km/h | 28781m | -22.7m/s | -39.4°C | 0% | 0hPa | 0V | 00:00:00 | 00:00:00 | 00:00:00 | |
| KE7DJD | 2026-09-05 18:34:46 | 41.60189 | -115.20147 | 20° | 24km/h | 29226m | -24.3m/s | -39.3°C | 0% | 0hPa | 0V | 00:00:00 | 00:00:00 | 00:00:00 | |
| KE7DJD | 2026-09-05 18:34:23 | 41.60170 | -115.20145 | 264° | 5km/h | 29741m | -25.7m/s | -38.3°C | 0% | 0hPa | 0V | 00:00:00 | 00:00:00 | 00:00:00 | |
| KE7DJD | 2026-09-05 18:34:03 | 41.60143 | -115.20096 | 208° | 20km/h | 30166m | -23.7m/s | -38.7°C | 0% | 0hPa | 0V | 00:00:00 | 00:00:00 | 00:00:00 | |
| KE7DJD | 2026-09-05 18:33:41 | 41.60077 | -115.20054 | 345° | 24km/h | 30571m | -29.0m/s | -38.4°C | 0% | 0hPa | 0V | 00:00:00 | 00:00:00 | 00:00:00 | |
| KE7DJD | 2026-09-05 18:33:20 | 41.60047 | -115.20123 | 322° | 27km/h | 31150m | -18.4m/s | -36.3°C | 0% | 0hPa | 0V | 00:00:00 | 00:00:00 | 00:00:00 | |
| KE7DJD | 2026-09-05 18:32:58 | 41.60057 | -115.20060 | 175° | 26km/h | 31239m | 2.0m/s | -36.3°C | 0% | 0hPa | 0V | 00:00:00 | 00:00:00 | 00:00:00 | |
| KE7DJD | 2026-09-05 18:32:37 | 41.60052 | -115.20068 | 37° | 16km/h | 31093m | 5.5m/s | -36.5°C | 0% | 0hPa | 0V | 00:00:00 | 00:00:00 | 00:00:00 | |
| KE7DJD | 2026-09-05 18:32:16 | 41.60034 | -115.20099 | 28° | 9km/h | 30964m | 6.8m/s | -37.0°C | 0% | 0hPa | 0V | 00:00:00 | 00:00:00 | 00:00:00 | |
| KE7DJD | 2026-09-05 18:31:56 | 41.59948 | -115.20158 | 68° | 18km/h | 30833m | 9.6m/s | -37.2°C | 0% | 0hPa | 0V | 00:00:00 | 00:00:00 | 00:00:00 | |
| KE7DJD | 2026-09-05 18:31:35 | 41.59901 | -115.20192 | 338° | 9km/h | 30710m | 2.6m/s | -37.8°C | 0% | 0hPa | 0V | 00:00:00 | 00:00:00 | 00:00:00 | |
| KE7DJD | 2026-09-05 18:31:15 | 41.59798 | -115.20205 | 337° | 20km/h | 30577m | 7.2m/s | -38.0°C | 0% | 0hPa | 0V | 00:00:00 | 00:00:00 | 00:00:00 | |
| KE7DJD | 2026-09-05 18:30:54 | 41.59772 | -115.20146 | 222° | 33km/h | 30449m | 5.8m/s | -38.3°C | 0% | 0hPa | 0V | 00:00:00 | 00:00:00 | 00:00:00 | |
| KE7DJD | 2026-09-05 18:30:34 | 41.59760 | -115.20080 | 25° | 27km/h | 30315m | 0.6m/s | -38.3°C | 0% | 0hPa | 0V | 00:00:00 | 00:00:00 | 00:00:00 | |
| KE7DJD | 2026-09-05 18:30:12 | 41.59731 | -115.20035 | 252° | 27km/h | 30183m | -0.6m/s | -38.2°C | 0% | 0hPa | 0V | 00:00:00 | 00:00:00 | 00:00:00 | |
| KE7DJD | 2026-09-05 18:29:51 | 41.59720 | -115.20058 | 53° | 40km/h | 30051m | 1.3m/s | -38.3°C | 0% | 0hPa | 0V | 00:00:00 | 00:00:00 | 00:00:00 | |
| KE7DJD | 2026-09-05 18:29:30 | 41.59718 | -115.20056 | 202° | 24km/h | 29927m | 1.8m/s | -38.5°C | 0% | 0hPa | 0V | 00:00:00 | 00:00:00 | 00:00:00 | |
| KE7DJD | 2026-09-05 18:29:10 | 41.59693 | -115.20038 | 344° | 29km/h | 29803m | 4.3m/s | -38.2°C | 0% | 0hPa | 0V | 00:00:00 | 00:00:00 | 00:00:00 | |
| KE7DJD | 2026-09-05 18:28:49 | 41.59686 | -115.19959 | 231° | 26km/h | 29682m | 2.1m/s | -38.9°C | 0% | 0hPa | 0V | 00:00:00 | 00:00:00 | 00:00:00 | |
| KE7DJD | 2026-09-05 18:28:29 | 41.59694 | -115.19937 | 14° | 13km/h | 29556m | 3.8m/s | -38.6°C | 0% | 0hPa | 0V | 00:00:00 | 00:00:00 | 00:00:00 | |
| KE7DJD | 2026-09-05 18:28:07 | 41.59721 | -115.19940 | 141° | 20km/h | 29434m | 3.6m/s | -38.4°C | 0% | 0hPa | 0V | 00:00:00 | 00:00:00 | 00:00:00 | |
| KE7DJD | 2026-09-05 18:27:46 | 41.59659 | -115.20037 | 83° | 13km/h | 29300m | 7.3m/s | -39.6°C | 0% | 0hPa | 0V | 00:00:00 | 00:00:00 | 00:00:00 | |
| KE7DJD | 2026-09-05 18:27:25 | 41.59545 | -115.20099 | 354° | 60km/h | 29177m | 3.5m/s | -39.7°C | 0% | 0hPa | 0V | 00:00:00 | 00:00:00 | 00:00:00 | |
| KE7DJD | 2026-09-05 18:27:05 | 41.59436 | -115.20124 | 125° | 22km/h | 29056m | 5.0m/s | -39.1°C | 0% | 0hPa | 0V | 00:00:00 | 00:00:00 | 00:00:00 | |
| KE7DJD | 2026-09-05 18:26:44 | 41.59325 | -115.20119 | 9° | 62km/h | 28939m | 3.5m/s | -39.7°C | 0% | 0hPa | 0V | 00:00:00 | 00:00:00 | 00:00:00 | |
| KE7DJD | 2026-09-05 18:26:24 | 41.59196 | -115.20090 | 258° | 35km/h | 28818m | 3.0m/s | -40.5°C | 0% | 0hPa | 0V | 00:00:00 | 00:00:00 | 00:00:00 | |
| KE7DJD | 2026-09-05 18:26:02 | 41.59062 | -115.20075 | 24° | 38km/h | 28700m | 3.4m/s | -41.1°C | 0% | 0hPa | 0V | 00:00:00 | 00:00:00 | 00:00:00 | |
| KE7DJD | 2026-09-05 18:25:42 | 41.58943 | -115.20023 | 326° | 11km/h | 28575m | 3.9m/s | -41.4°C | 0% | 0hPa | 0V | 00:00:00 | 00:00:00 | 00:00:00 | |
| KE7DJD | 2026-09-05 18:25:22 | 41.58801 | -115.19932 | 275° | 38km/h | 28450m | 8.7m/s | -41.4°C | 0% | 0hPa | 0V | 00:00:00 | 00:00:00 | 00:00:00 | |
| KE7DJD | 2026-09-05 18:25:01 | 41.58696 | -115.19810 | 360° | 47km/h | 28330m | 6.0m/s | -41.4°C | 0% | 0hPa | 0V | 00:00:00 | 00:00:00 | 00:00:00 | |
| KE7DJD | 2026-09-05 18:24:41 | 41.58609 | -115.19707 | 277° | 24km/h | 28205m | 2.8m/s | -41.8°C | 0% | 0hPa | 0V | 00:00:00 | 00:00:00 | 00:00:00 | |
| KE7DJD | 2026-09-05 18:24:19 | 41.58499 | -115.19610 | 295° | 35km/h | 28080m | 7.5m/s | -41.3°C | 0% | 0hPa | 0V | 00:00:00 | 00:00:00 | 00:00:00 | |
| KE7DJD | 2026-09-05 18:23:59 | 41.58446 | -115.19467 | 9° | 24km/h | 27956m | 1.3m/s | -40.9°C | 0% | 0hPa | 0V | 00:00:00 | 00:00:00 | 00:00:00 | |
| KE7DJD | 2026-09-05 18:23:38 | 41.58399 | -115.19329 | 280° | 15km/h | 27838m | 4.7m/s | -40.7°C | 0% | 0hPa | 0V | 00:00:00 | 00:00:00 | 00:00:00 | |
| KE7DJD | 2026-09-05 18:23:16 | 41.58373 | -115.19227 | 272° | 33km/h | 27710m | 6.6m/s | -40.9°C | 0% | 0hPa | 0V | 00:00:00 | 00:00:00 | 00:00:00 | |
| KE7DJD | 2026-09-05 18:22:55 | 41.58360 | -115.19160 | 298° | 20km/h | 27587m | 5.0m/s | -41.1°C | 0% | 0hPa | 0V | 00:00:00 | 00:00:00 | 00:00:00 | |
| KE7DJD | 2026-09-05 18:22:34 | 41.58349 | -115.19083 | 263° | 15km/h | 27458m | 5.3m/s | -40.7°C | 0% | 0hPa | 0V | 00:00:00 | 00:00:00 | 00:00:00 | |
| KE7DJD | 2026-09-05 18:22:14 | 41.58401 | -115.18968 | 306° | 22km/h | 27341m | 4.8m/s | -41.2°C | 0% | 0hPa | 0V | 00:00:00 | 00:00:00 | 00:00:00 | |
| KE7DJD | 2026-09-05 18:21:53 | 41.58479 | -115.18885 | 210° | 7km/h | 27232m | 5.7m/s | -41.3°C | 0% | 0hPa | 0V | 00:00:00 | 00:00:00 | 00:00:00 | |
| KE7DJD | 2026-09-05 18:21:32 | 41.58508 | -115.18881 | 95° | 5km/h | 27110m | 3.8m/s | -41.6°C | 0% | 0hPa | 0V | 00:00:00 | 00:00:00 | 00:00:00 | |
| KE7DJD | 2026-09-05 18:21:12 | 41.58475 | -115.18842 | 261° | 27km/h | 26996m | 6.2m/s | -41.8°C | 0% | 0hPa | 0V | 00:00:00 | 00:00:00 | 00:00:00 | |
| KE7DJD | 2026-09-05 18:20:51 | 41.58479 | -115.18817 | 150° | 13km/h | 26879m | 5.9m/s | -42.0°C | 0% | 0hPa | 0V | 00:00:00 | 00:00:00 | 00:00:00 | |
| KE7DJD | 2026-09-05 18:20:30 | 41.58517 | -115.18802 | 65° | 7km/h | 26761m | 7.4m/s | -41.6°C | 0% | 0hPa | 0V | 00:00:00 | 00:00:00 | 00:00:00 | |
| KE7DJD | 2026-09-05 18:20:09 | 41.58489 | -115.18745 | 352° | 13km/h | 26645m | 6.0m/s | -42.0°C | 0% | 0hPa | 0V | 00:00:00 | 00:00:00 | 00:00:00 | |
| KE7DJD | 2026-09-05 18:19:48 | 41.58437 | -115.18661 | 294° | 26km/h | 26526m | 6.7m/s | -42.4°C | 0% | 0hPa | 0V | 00:00:00 | 00:00:00 | 00:00:00 | |
| KE7DJD | 2026-09-05 18:19:26 | 41.58390 | -115.18607 | 21° | 24km/h | 26397m | 6.2m/s | -43.1°C | 0% | 0hPa | 0V | 00:00:00 | 00:00:00 | 00:00:00 | |
| KE7DJD | 2026-09-05 18:19:06 | 41.58315 | -115.18558 | 352° | 9km/h | 26279m | 8.1m/s | -43.8°C | 0% | 0hPa | 0V | 00:00:00 | 00:00:00 | 00:00:00 | |
| KE7DJD | 2026-09-05 18:18:46 | 41.58204 | -115.18437 | 293° | 40km/h | 26162m | 5.3m/s | -44.3°C | 0% | 0hPa | 0V | 00:00:00 | 00:00:00 | 00:00:00 | |
| KE7DJD | 2026-09-05 18:18:26 | 41.58142 | -115.18331 | 269° | 22km/h | 26045m | 6.2m/s | -44.8°C | 0% | 0hPa | 0V | 00:00:00 | 00:00:00 | 00:00:00 | |
| KE7DJD | 2026-09-05 18:18:05 | 41.58089 | -115.18271 | 327° | 16km/h | 25929m | 6.5m/s | -44.8°C | 0% | 0hPa | 0V | 00:00:00 | 00:00:00 | 00:00:00 | |
| KE7DJD | 2026-09-05 18:17:45 | 41.58025 | -115.18159 | 288° | 29km/h | 25812m | 6.4m/s | -44.9°C | 0% | 0hPa | 0V | 00:00:00 | 00:00:00 | 00:00:00 | |
| KE7DJD | 2026-09-05 18:17:24 | 41.57991 | -115.17999 | 251° | 26km/h | 25696m | 6.4m/s | -44.9°C | 0% | 0hPa | 0V | 00:00:00 | 00:00:00 | 00:00:00 | |
| KE7DJD | 2026-09-05 18:17:02 | 41.57984 | -115.17818 | 293° | 24km/h | 25582m | 5.4m/s | -44.8°C | 0% | 0hPa | 0V | 00:00:00 | 00:00:00 | 00:00:00 | |
| KE7DJD | 2026-09-05 18:16:29 | 41.57936 | -115.17600 | 266° | 15km/h | 25400m | 6.8m/s | -44.7°C | 0% | 0hPa | 0V | 00:00:00 | 00:00:00 | 00:00:00 | |
| KE7DJD | 2026-09-05 18:16:08 | 41.57909 | -115.17500 | 280° | 27km/h | 25290m | 6.6m/s | -45.7°C | 0% | 0hPa | 0V | 00:00:00 | 00:00:00 | 00:00:00 | |
| KE7DJD | 2026-09-05 18:15:47 | 41.57921 | -115.17351 | 227° | 35km/h | 25176m | 3.3m/s | -45.6°C | 0% | 0hPa | 0V | 00:00:00 | 00:00:00 | 00:00:00 | |
| KE7DJD | 2026-09-05 18:15:26 | 41.57936 | -115.17259 | 30° | 5km/h | 25069m | 5.5m/s | -45.8°C | 0% | 0hPa | 0V | 00:00:00 | 00:00:00 | 00:00:00 | |
| KE7DJD | 2026-09-05 18:15:05 | 41.57915 | -115.17168 | 266° | 35km/h | 24956m | 2.6m/s | -46.0°C | 0% | 0hPa | 0V | 00:00:00 | 00:00:00 | 00:00:00 | |
| KE7DJD | 2026-09-05 18:14:45 | 41.57900 | -115.16997 | 250° | 33km/h | 24843m | 5.7m/s | -45.4°C | 0% | 0hPa | 0V | 00:00:00 | 00:00:00 | 00:00:00 | |
| KE7DJD | 2026-09-05 18:14:25 | 41.57885 | -115.16791 | 268° | 37km/h | 24733m | 5.2m/s | -45.5°C | 0% | 0hPa | 0V | 00:00:00 | 00:00:00 | 00:00:00 | |
| KE7DJD | 2026-09-05 18:14:04 | 41.57869 | -115.16580 | 250° | 49km/h | 24619m | 6.9m/s | -45.6°C | 0% | 0hPa | 0V | 00:00:00 | 00:00:00 | 00:00:00 | |
| KE7DJD | 2026-09-05 18:13:44 | 41.57915 | -115.16376 | 216° | 37km/h | 24499m | 4.5m/s | -45.8°C | 0% | 0hPa | 0V | 00:00:00 | 00:00:00 | 00:00:00 | |
| KE7DJD | 2026-09-05 18:13:23 | 41.57967 | -115.16228 | 254° | 16km/h | 24384m | 7.2m/s | -45.7°C | 0% | 0hPa | 0V | 00:00:00 | 00:00:00 | 00:00:00 | |
| KE7DJD | 2026-09-05 18:13:03 | 41.57992 | -115.16069 | 296° | 47km/h | 24261m | 6.1m/s | -45.7°C | 0% | 0hPa | 0V | 00:00:00 | 00:00:00 | 00:00:00 | |
| KE7DJD | 2026-09-05 18:12:42 | 41.58042 | -115.15889 | 218° | 46km/h | 24146m | 6.0m/s | -45.7°C | 0% | 0hPa | 0V | 00:00:00 | 00:00:00 | 00:00:00 | |
| KE7DJD | 2026-09-05 18:12:22 | 41.58139 | -115.15704 | 238° | 29km/h | 24029m | 6.6m/s | -45.3°C | 0% | 0hPa | 0V | 00:00:00 | 00:00:00 | 00:00:00 | |
| KE7DJD | 2026-09-05 18:12:00 | 41.58212 | -115.15619 | 197° | 13km/h | 23911m | 5.4m/s | -45.5°C | 0% | 0hPa | 0V | 00:00:00 | 00:00:00 | 00:00:00 | |
| KE7DJD | 2026-09-05 18:11:39 | 41.58215 | -115.15587 | 11° | 7km/h | 23797m | 4.0m/s | -46.3°C | 0% | 0hPa | 0V | 00:00:00 | 00:00:00 | 00:00:00 | |
| KE7DJD | 2026-09-05 18:11:19 | 41.58136 | -115.15527 | 38° | 27km/h | 23687m | 4.4m/s | -46.5°C | 0% | 0hPa | 0V | 00:00:00 | 00:00:00 | 00:00:00 | |
| KE7DJD | 2026-09-05 18:10:58 | 41.58048 | -115.15440 | 318° | 35km/h | 23575m | 6.4m/s | -46.0°C | 0% | 0hPa | 0V | 00:00:00 | 00:00:00 | 00:00:00 | |
| KE7DJD | 2026-09-05 18:10:37 | 41.57986 | -115.15293 | 292° | 31km/h | 23473m | 4.2m/s | -45.9°C | 0% | 0hPa | 0V | 00:00:00 | 00:00:00 | 00:00:00 | |
| KE7DJD | 2026-09-05 18:10:17 | 41.57945 | -115.15113 | 262° | 24km/h | 23361m | 6.0m/s | -46.1°C | 0% | 0hPa | 0V | 00:00:00 | 00:00:00 | 00:00:00 | |
| KE7DJD | 2026-09-05 18:09:56 | 41.57942 | -115.14882 | 265° | 33km/h | 23247m | 5.3m/s | -46.0°C | 0% | 0hPa | 0V | 00:00:00 | 00:00:00 | 00:00:00 | |
| KE7DJD | 2026-09-05 18:09:35 | 41.57960 | -115.14673 | 264° | 40km/h | 23136m | 4.7m/s | -47.1°C | 0% | 0hPa | 0V | 00:00:00 | 00:00:00 | 00:00:00 | |
| KE7DJD | 2026-09-05 18:08:54 | 41.57943 | -115.14455 | 282° | 29km/h | 22918m | 5.9m/s | -48.7°C | 0% | 0hPa | 0V | 00:00:00 | 00:00:00 | 00:00:00 | |
| KE7DJD | 2026-09-05 18:08:34 | 41.57923 | -115.14308 | 257° | 11km/h | 22801m | 4.0m/s | -49.0°C | 0% | 0hPa | 0V | 00:00:00 | 00:00:00 | 00:00:00 | |
| KE7DJD | 2026-09-05 18:08:13 | 41.57946 | -115.14171 | 201° | 22km/h | 22688m | 6.1m/s | -48.9°C | 0% | 0hPa | 0V | 00:00:00 | 00:00:00 | 00:00:00 | |
| KE7DJD | 2026-09-05 18:07:53 | 41.58008 | -115.14053 | 233° | 24km/h | 22568m | 6.1m/s | -48.6°C | 0% | 0hPa | 0V | 00:00:00 | 00:00:00 | 00:00:00 | |
| KE7DJD | 2026-09-05 18:07:32 | 41.58048 | -115.13986 | 98° | 11km/h | 22460m | 6.0m/s | -48.4°C | 0% | 0hPa | 0V | 00:00:00 | 00:00:00 | 00:00:00 | |
| KE7DJD | 2026-09-05 18:07:12 | 41.58048 | -115.13936 | 278° | 5km/h | 22346m | 4.7m/s | -48.2°C | 0% | 0hPa | 0V | 00:00:00 | 00:00:00 | 00:00:00 | |
| KE7DJD | 2026-09-05 18:06:51 | 41.58054 | -115.13833 | 275° | 26km/h | 22238m | 4.5m/s | -47.9°C | 0% | 0hPa | 0V | 00:00:00 | 00:00:00 | 00:00:00 | |
| KE7DJD | 2026-09-05 18:06:30 | 41.58049 | -115.13734 | 244° | 16km/h | 22132m | 5.5m/s | -47.9°C | 0% | 0hPa | 0V | 00:00:00 | 00:00:00 | 00:00:00 | |
| KE7DJD | 2026-09-05 18:06:10 | 41.58065 | -115.13708 | 21° | 4km/h | 22029m | 5.3m/s | -48.2°C | 0% | 0hPa | 0V | 00:00:00 | 00:00:00 | 00:00:00 | |
| KE7DJD | 2026-09-05 18:05:50 | 41.58056 | -115.13704 | 260° | 7km/h | 21923m | 6.3m/s | -47.9°C | 0% | 0hPa | 0V | 00:00:00 | 00:00:00 | 00:00:00 | |
| KE7DJD | 2026-09-05 18:05:29 | 41.58034 | -115.13625 | 284° | 24km/h | 21823m | 4.7m/s | -48.7°C | 0% | 0hPa | 0V | 00:00:00 | 00:00:00 | 00:00:00 | |
| KE7DJD | 2026-09-05 18:05:09 | 41.57975 | -115.13518 | 320° | 27km/h | 21718m | 4.1m/s | -48.8°C | 0% | 0hPa | 0V | 00:00:00 | 00:00:00 | 00:00:00 | |
| KE7DJD | 2026-09-05 18:04:48 | 41.57903 | -115.13379 | 302° | 38km/h | 21616m | 6.1m/s | -48.7°C | 0% | 0hPa | 0V | 00:00:00 | 00:00:00 | 00:00:00 | |
| KE7DJD | 2026-09-05 18:04:28 | 41.57865 | -115.13204 | 265° | 16km/h | 21509m | 6.3m/s | -48.3°C | 0% | 0hPa | 0V | 00:00:00 | 00:00:00 | 00:00:00 | |
| KE7DJD | 2026-09-05 18:04:07 | 41.57862 | -115.13065 | 276° | 20km/h | 21404m | 3.8m/s | -48.4°C | 0% | 0hPa | 0V | 00:00:00 | 00:00:00 | 00:00:00 | |
| KE7DJD | 2026-09-05 18:03:46 | 41.57862 | -115.12987 | 286° | 13km/h | 21305m | 5.4m/s | -48.2°C | 0% | 0hPa | 0V | 00:00:00 | 00:00:00 | 00:00:00 | |
| KE7DJD | 2026-09-05 18:03:26 | 41.57826 | -115.12985 | 2° | 5km/h | 21196m | 5.8m/s | -49.1°C | 0% | 0hPa | 0V | 00:00:00 | 00:00:00 | 00:00:00 | |
| KE7DJD | 2026-09-05 18:03:05 | 41.57764 | -115.12998 | 2° | 29km/h | 21093m | 4.4m/s | -49.8°C | 0% | 0hPa | 0V | 00:00:00 | 00:00:00 | 00:00:00 | |
| KE7DJD | 2026-09-05 18:02:45 | 41.57654 | -115.12915 | 300° | 33km/h | 20990m | 4.4m/s | -50.5°C | 0% | 0hPa | 0V | 00:00:00 | 00:00:00 | 00:00:00 | |
| KE7DJD | 2026-09-05 18:02:24 | 41.57567 | -115.12778 | 311° | 40km/h | 20889m | 4.5m/s | -50.2°C | 0% | 0hPa | 0V | 00:00:00 | 00:00:00 | 00:00:00 | |
| KE7DJD | 2026-09-05 18:02:04 | 41.57523 | -115.12630 | 269° | 35km/h | 20791m | 6.0m/s | -50.1°C | 0% | 0hPa | 0V | 00:00:00 | 00:00:00 | 00:00:00 | |
| KE7DJD | 2026-09-05 18:01:43 | 41.57526 | -115.12430 | 277° | 29km/h | 20693m | 4.7m/s | -50.3°C | 0% | 0hPa | 0V | 00:00:00 | 00:00:00 | 00:00:00 | |
| KE7DJD | 2026-09-05 18:01:23 | 41.57518 | -115.12280 | 274° | 5km/h | 20588m | 5.9m/s | -49.8°C | 0% | 0hPa | 0V | 00:00:00 | 00:00:00 | 00:00:00 | |
| KE7DJD | 2026-09-05 18:01:02 | 41.57482 | -115.12199 | 335° | 15km/h | 20487m | 6.0m/s | -49.9°C | 0% | 0hPa | 0V | 00:00:00 | 00:00:00 | 00:00:00 | |
| KE7DJD | 2026-09-05 18:00:42 | 41.57385 | -115.12152 | 328° | 16km/h | 20383m | 5.4m/s | -50.2°C | 0% | 0hPa | 0V | 00:00:00 | 00:00:00 | 00:00:00 | |
| KE7DJD | 2026-09-05 18:00:21 | 41.57299 | -115.12148 | 340° | 9km/h | 20284m | 5.0m/s | -50.0°C | 0% | 0hPa | 0V | 00:00:00 | 00:00:00 | 00:00:00 | |
| KE7DJD | 2026-09-05 18:00:01 | 41.57208 | -115.12135 | 11° | 31km/h | 20179m | 5.3m/s | -49.7°C | 0% | 0hPa | 0V | 00:00:00 | 00:00:00 | 00:00:00 | |
| KE7DJD | 2026-09-05 17:59:40 | 41.57071 | -115.12108 | 331° | 24km/h | 20074m | 4.3m/s | -49.6°C | 0% | 0hPa | 0V | 00:00:00 | 00:00:00 | 00:00:00 | |
| KE7DJD | 2026-09-05 17:59:18 | 41.56942 | -115.12070 | 334° | 20km/h | 19973m | 5.1m/s | -49.1°C | 0% | 0hPa | 0V | 00:00:00 | 00:00:00 | 00:00:00 | |
| KE7DJD | 2026-09-05 17:58:58 | 41.56816 | -115.11982 | 315° | 24km/h | 19874m | 5.4m/s | -48.3°C | 0% | 0hPa | 0V | 00:00:00 | 00:00:00 | 00:00:00 | |
| KE7DJD | 2026-09-05 17:58:37 | 41.56712 | -115.11899 | 13° | 13km/h | 19772m | 4.0m/s | -49.9°C | 0% | 0hPa | 0V | 00:00:00 | 00:00:00 | 00:00:00 | |
| KE7DJD | 2026-09-05 17:58:16 | 41.56638 | -115.11880 | 333° | 20km/h | 19678m | 3.7m/s | -50.5°C | 0% | 0hPa | 0V | 00:00:00 | 00:00:00 | 00:00:00 | |
| KE7DJD | 2026-09-05 17:57:56 | 41.56582 | -115.11825 | 321° | 4km/h | 19580m | 4.1m/s | -50.4°C | 0% | 0hPa | 0V | 00:00:00 | 00:00:00 | 00:00:00 | |
| KE7DJD | 2026-09-05 17:57:35 | 41.56571 | -115.11829 | 172° | 9km/h | 19485m | 4.9m/s | -50.7°C | 0% | 0hPa | 0V | 00:00:00 | 00:00:00 | 00:00:00 | |
| KE7DJD | 2026-09-05 17:57:15 | 41.56562 | -115.11864 | 40° | 11km/h | 19387m | 3.9m/s | -51.5°C | 0% | 0hPa | 0V | 00:00:00 | 00:00:00 | 00:00:00 | |
| KE7DJD | 2026-09-05 17:56:54 | 41.56487 | -115.11946 | 30° | 22km/h | 19286m | 3.7m/s | -52.1°C | 0% | 0hPa | 0V | 00:00:00 | 00:00:00 | 00:00:00 | |
| KE7DJD | 2026-09-05 17:56:33 | 41.56392 | -115.12029 | 23° | 22km/h | 19187m | 5.7m/s | -52.1°C | 0% | 0hPa | 0V | 00:00:00 | 00:00:00 | 00:00:00 | |
| KE7DJD | 2026-09-05 17:56:13 | 41.56311 | -115.12091 | 41° | 18km/h | 19085m | 4.2m/s | -51.7°C | 0% | 0hPa | 0V | 00:00:00 | 00:00:00 | 00:00:00 | |
| KE7DJD | 2026-09-05 17:55:52 | 41.56214 | -115.12119 | 16° | 22km/h | 18986m | 6.0m/s | -51.3°C | 0% | 0hPa | 0V | 00:00:00 | 00:00:00 | 00:00:00 | |
| KE7DJD | 2026-09-05 17:55:32 | 41.56126 | -115.12123 | 17° | 24km/h | 18885m | 4.7m/s | -51.8°C | 0% | 0hPa | 0V | 00:00:00 | 00:00:00 | 00:00:00 |